Terminal Aerodrome Forecast
Issued by NWS

Home | Current Version | Previous Version | Text Only | Print | Product List | Glossary On
Versions: 1 2 3 4 5 6 7 8 9 10 11 12 13 14 15 16 17 18 19 20 21 22 23 24 25 26 27 28 29 30 31 32 33 34 35 36 37 38 39 40 41 42 43 44 45 46 47 48 49 50
803
FTUS45 KBOU 281740
TAFBJC
TAF
KBJC 281740Z 2818/2918 VRB04KT 3SM -SN BR OVC008
      TEMPO 2818/2819 5SM -RASN BR BKN013 OVC022
     FM281900 06008KT P6SM VCSH BKN018 OVC030
     FM282300 03007KT 5SM -SHRA BR OVC015
     FM290300 05008KT 3SM -SNRA BR BKN008 OVC015
      TEMPO 2905/2907 2SM -SN BR OVC006
     FM290800 08010KT 3/4SM -SN BR OVC004
      TEMPO 2909/2912 1/4SM SN FZFG VV003=

USA.gov is the U.S. government's official web portal to all federal, state and local government web resources and services.